Urb Mirador de Bairoa, Puerto Rico
Current Conditions -  °F | °C
As of 4:56 AM on Wednesday 26 Nov 2014 (Local Time) from TJSJ Reporting Station
Scattered Clouds Scattered Clouds  
Wind Chill: 76°   Ceiling: Unl
Heat Index: 76°   Visibility: 10mi
Dew Point: 74°   Wind: 5mph
Humidity: 94%   Direction: 120°ESE
Pressure: 29.98"   Gusts: NA
Location:  18.2351°N, 66.0374°W
Report Text: TJSJ 260856Z 12004KT 10SM FEW030 SCT050 SCT065 24/23 A2998 RMK AO2 RAB30E51 SLP149 VCSH NW P0002 60002 T02440233 55004
Loading
Personal Weather Stations






























Interactive Weather Map New forecast layout! Learn more

10-Day Weather Forecast

Advertisements
Track Severe Weather on mobile